sensor_id;sensor_type;location;lat;lon;timestamp;P1;durP1;ratioP1;P2;durP2;ratioP2
59458;SDS011;45269;43.568;22.244;2023-06-26T00:00:21;16.15;;;14.43;;
59458;SDS011;45269;43.568;22.244;2023-06-26T00:02:46;17.00;;;15.25;;
59458;SDS011;45269;43.568;22.244;2023-06-26T00:05:12;18.08;;;14.70;;
59458;SDS011;45269;43.568;22.244;2023-06-26T00:07:38;15.77;;;14.38;;
59458;SDS011;45269;43.568;22.244;2023-06-26T00:10:04;16.00;;;14.45;;
59458;SDS011;45269;43.568;22.244;2023-06-26T00:12:30;17.33;;;15.80;;
59458;SDS011;45269;43.568;22.244;2023-06-26T00:14:55;17.77;;;16.10;;
59458;SDS011;45269;43.568;22.244;2023-06-26T00:17:21;20.00;;;16.90;;
59458;SDS011;45269;43.568;22.244;2023-06-26T00:19:46;18.55;;;16.80;;
59458;SDS011;45269;43.568;22.244;2023-06-26T00:22:12;17.13;;;15.55;;
59458;SDS011;45269;43.568;22.244;2023-06-26T00:24:37;17.52;;;15.93;;
59458;SDS011;45269;43.568;22.244;2023-06-26T00:27:03;19.88;;;16.73;;
59458;SDS011;45269;43.568;22.244;2023-06-26T00:29:28;19.90;;;17.10;;
59458;SDS011;45269;43.568;22.244;2023-06-26T00:31:53;18.40;;;16.65;;
59458;SDS011;45269;43.568;22.244;2023-06-26T00:34:19;18.38;;;16.65;;
59458;SDS011;45269;43.568;22.244;2023-06-26T00:36:44;19.23;;;17.08;;
59458;SDS011;45269;43.568;22.244;2023-06-26T00:39:10;20.50;;;18.60;;
59458;SDS011;45269;43.568;22.244;2023-06-26T00:41:38;20.05;;;18.10;;
59458;SDS011;45269;43.568;22.244;2023-06-26T00:44:04;21.02;;;18.88;;
59458;SDS011;45269;43.568;22.244;2023-06-26T00:46:29;23.35;;;21.20;;
59458;SDS011;45269;43.568;22.244;2023-06-26T00:48:55;22.05;;;19.90;;
59458;SDS011;45269;43.568;22.244;2023-06-26T00:51:20;21.73;;;19.42;;
59458;SDS011;45269;43.568;22.244;2023-06-26T00:53:46;22.30;;;19.98;;
59458;SDS011;45269;43.568;22.244;2023-06-26T00:56:13;24.48;;;22.00;;
59458;SDS011;45269;43.568;22.244;2023-06-26T00:58:39;23.65;;;21.52;;
59458;SDS011;45269;43.568;22.244;2023-06-26T01:01:05;22.23;;;20.23;;
59458;SDS011;45269;43.568;22.244;2023-06-26T01:03:33;22.00;;;19.92;;
59458;SDS011;45269;43.568;22.244;2023-06-26T01:05:59;21.90;;;19.73;;
59458;SDS011;45269;43.568;22.244;2023-06-26T01:08:25;23.55;;;21.20;;
59458;SDS011;45269;43.568;22.244;2023-06-26T01:10:50;22.20;;;20.10;;
59458;SDS011;45269;43.568;22.244;2023-06-26T01:13:16;23.25;;;21.05;;
59458;SDS011;45269;43.568;22.244;2023-06-26T01:15:41;23.58;;;21.33;;
59458;SDS011;45269;43.568;22.244;2023-06-26T01:18:07;24.42;;;22.23;;
59458;SDS011;45269;43.568;22.244;2023-06-26T01:20:32;24.58;;;22.02;;
59458;SDS011;45269;43.568;22.244;2023-06-26T01:23:03;25.38;;;23.05;;
59458;SDS011;45269;43.568;22.244;2023-06-26T01:28:14;24.27;;;21.75;;
59458;SDS011;45269;43.568;22.244;2023-06-26T01:30:41;25.17;;;22.88;;
59458;SDS011;45269;43.568;22.244;2023-06-26T01:33:07;25.08;;;22.65;;
59458;SDS011;45269;43.568;22.244;2023-06-26T01:35:32;24.27;;;22.08;;
59458;SDS011;45269;43.568;22.244;2023-06-26T01:38:17;23.42;;;21.20;;
59458;SDS011;45269;43.568;22.244;2023-06-26T01:40:42;22.90;;;20.83;;
59458;SDS011;45269;43.568;22.244;2023-06-26T01:43:27;24.10;;;21.80;;
59458;SDS011;45269;43.568;22.244;2023-06-26T01:45:55;25.85;;;21.85;;
59458;SDS011;45269;43.568;22.244;2023-06-26T01:48:23;23.98;;;21.45;;
59458;SDS011;45269;43.568;22.244;2023-06-26T01:50:50;23.48;;;21.42;;
59458;SDS011;45269;43.568;22.244;2023-06-26T01:53:17;23.77;;;21.50;;
59458;SDS011;45269;43.568;22.244;2023-06-26T01:55:58;25.40;;;22.98;;
59458;SDS011;45269;43.568;22.244;2023-06-26T01:58:26;26.48;;;24.08;;
59458;SDS011;45269;43.568;22.244;2023-06-26T02:00:52;25.77;;;23.30;;
59458;SDS011;45269;43.568;22.244;2023-06-26T02:03:18;25.20;;;22.75;;
59458;SDS011;45269;43.568;22.244;2023-06-26T02:05:45;25.75;;;23.15;;
59458;SDS011;45269;43.568;22.244;2023-06-26T02:08:10;26.75;;;24.25;;
59458;SDS011;45269;43.568;22.244;2023-06-26T02:10:35;25.65;;;23.00;;
59458;SDS011;45269;43.568;22.244;2023-06-26T02:13:01;26.00;;;22.75;;
59458;SDS011;45269;43.568;22.244;2023-06-26T02:15:26;25.10;;;22.83;;
59458;SDS011;45269;43.568;22.244;2023-06-26T02:17:52;25.17;;;22.85;;
59458;SDS011;45269;43.568;22.244;2023-06-26T02:20:17;26.38;;;23.73;;
59458;SDS011;45269;43.568;22.244;2023-06-26T02:22:42;26.52;;;24.23;;
59458;SDS011;45269;43.568;22.244;2023-06-26T02:25:08;25.95;;;23.55;;
59458;SDS011;45269;43.568;22.244;2023-06-26T02:27:34;24.58;;;22.45;;
59458;SDS011;45269;43.568;22.244;2023-06-26T02:29:59;28.75;;;23.95;;
59458;SDS011;45269;43.568;22.244;2023-06-26T02:32:24;26.33;;;23.75;;
59458;SDS011;45269;43.568;22.244;2023-06-26T02:34:50;28.33;;;23.92;;
59458;SDS011;45269;43.568;22.244;2023-06-26T02:37:19;26.33;;;23.98;;
59458;SDS011;45269;43.568;22.244;2023-06-26T02:39:44;28.15;;;25.45;;
59458;SDS011;45269;43.568;22.244;2023-06-26T02:42:09;26.20;;;23.80;;
59458;SDS011;45269;43.568;22.244;2023-06-26T02:44:35;27.05;;;24.27;;
59458;SDS011;45269;43.568;22.244;2023-06-26T02:47:00;25.70;;;23.25;;
59458;SDS011;45269;43.568;22.244;2023-06-26T02:49:25;27.13;;;24.67;;
59458;SDS011;45269;43.568;22.244;2023-06-26T02:51:51;27.00;;;24.35;;
59458;SDS011;45269;43.568;22.244;2023-06-26T02:54:16;26.05;;;23.65;;
59458;SDS011;45269;43.568;22.244;2023-06-26T02:56:41;26.75;;;24.00;;
59458;SDS011;45269;43.568;22.244;2023-06-26T02:59:07;28.15;;;25.33;;
59458;SDS011;45269;43.568;22.244;2023-06-26T03:01:33;29.42;;;23.52;;
59458;SDS011;45269;43.568;22.244;2023-06-26T03:03:58;25.23;;;22.65;;
59458;SDS011;45269;43.568;22.244;2023-06-26T03:06:25;26.27;;;23.98;;
59458;SDS011;45269;43.568;22.244;2023-06-26T03:08:51;29.05;;;26.20;;
59458;SDS011;45269;43.568;22.244;2023-06-26T03:11:16;26.17;;;23.85;;
59458;SDS011;45269;43.568;22.244;2023-06-26T03:13:41;25.48;;;23.00;;
59458;SDS011;45269;43.568;22.244;2023-06-26T03:16:07;25.38;;;22.77;;
59458;SDS011;45269;43.568;22.244;2023-06-26T03:18:32;26.77;;;24.20;;
59458;SDS011;45269;43.568;22.244;2023-06-26T03:20:57;25.77;;;22.95;;
59458;SDS011;45269;43.568;22.244;2023-06-26T03:23:23;27.23;;;24.45;;
59458;SDS011;45269;43.568;22.244;2023-06-26T03:25:49;27.77;;;25.23;;
59458;SDS011;45269;43.568;22.244;2023-06-26T03:28:14;26.90;;;24.38;;
59458;SDS011;45269;43.568;22.244;2023-06-26T03:30:40;26.63;;;24.23;;
59458;SDS011;45269;43.568;22.244;2023-06-26T03:33:05;25.08;;;22.75;;
59458;SDS011;45269;43.568;22.244;2023-06-26T03:35:30;24.92;;;22.35;;
59458;SDS011;45269;43.568;22.244;2023-06-26T03:37:56;25.13;;;22.92;;
59458;SDS011;45269;43.568;22.244;2023-06-26T03:40:22;26.15;;;23.65;;
59458;SDS011;45269;43.568;22.244;2023-06-26T03:42:47;25.85;;;23.55;;
59458;SDS011;45269;43.568;22.244;2023-06-26T03:45:12;26.65;;;24.05;;
59458;SDS011;45269;43.568;22.244;2023-06-26T03:47:38;25.83;;;23.55;;
59458;SDS011;45269;43.568;22.244;2023-06-26T03:50:03;26.77;;;24.15;;
59458;SDS011;45269;43.568;22.244;2023-06-26T03:52:29;26.27;;;23.67;;
59458;SDS011;45269;43.568;22.244;2023-06-26T03:54:56;27.50;;;24.58;;
59458;SDS011;45269;43.568;22.244;2023-06-26T03:57:21;25.25;;;22.88;;
59458;SDS011;45269;43.568;22.244;2023-06-26T03:59:47;27.80;;;24.95;;
59458;SDS011;45269;43.568;22.244;2023-06-26T04:02:12;25.23;;;23.00;;
59458;SDS011;45269;43.568;22.244;2023-06-26T04:04:37;27.10;;;24.48;;
59458;SDS011;45269;43.568;22.244;2023-06-26T04:07:04;25.73;;;23.27;;
59458;SDS011;45269;43.568;22.244;2023-06-26T04:09:29;27.58;;;24.98;;
59458;SDS011;45269;43.568;22.244;2023-06-26T04:11:54;26.95;;;24.33;;
59458;SDS011;45269;43.568;22.244;2023-06-26T04:14:20;27.88;;;25.02;;
59458;SDS011;45269;43.568;22.244;2023-06-26T04:16:45;27.45;;;24.98;;
59458;SDS011;45269;43.568;22.244;2023-06-26T04:19:11;28.13;;;25.58;;
59458;SDS011;45269;43.568;22.244;2023-06-26T04:21:36;28.05;;;25.58;;
59458;SDS011;45269;43.568;22.244;2023-06-26T04:24:01;28.35;;;25.58;;
59458;SDS011;45269;43.568;22.244;2023-06-26T04:26:27;26.83;;;24.33;;
59458;SDS011;45269;43.568;22.244;2023-06-26T04:28:53;28.13;;;25.50;;
59458;SDS011;45269;43.568;22.244;2023-06-26T04:31:18;26.70;;;24.08;;
59458;SDS011;45269;43.568;22.244;2023-06-26T04:33:44;26.00;;;23.60;;
59458;SDS011;45269;43.568;22.244;2023-06-26T04:36:09;26.77;;;24.23;;
59458;SDS011;45269;43.568;22.244;2023-06-26T04:38:34;26.13;;;23.83;;
59458;SDS011;45269;43.568;22.244;2023-06-26T04:41:00;24.17;;;22.08;;
59458;SDS011;45269;43.568;22.244;2023-06-26T04:43:25;25.48;;;23.27;;
59458;SDS011;45269;43.568;22.244;2023-06-26T04:45:51;27.73;;;24.90;;
59458;SDS011;45269;43.568;22.244;2023-06-26T04:48:16;26.67;;;24.33;;
59458;SDS011;45269;43.568;22.244;2023-06-26T04:50:41;25.88;;;23.67;;
59458;SDS011;45269;43.568;22.244;2023-06-26T04:53:07;27.02;;;24.63;;
59458;SDS011;45269;43.568;22.244;2023-06-26T04:55:32;27.20;;;24.67;;
59458;SDS011;45269;43.568;22.244;2023-06-26T04:57:57;25.63;;;23.25;;
59458;SDS011;45269;43.568;22.244;2023-06-26T05:00:23;25.83;;;23.13;;
59458;SDS011;45269;43.568;22.244;2023-06-26T05:02:50;24.65;;;22.25;;
59458;SDS011;45269;43.568;22.244;2023-06-26T05:05:24;25.77;;;23.38;;
59458;SDS011;45269;43.568;22.244;2023-06-26T05:07:49;24.95;;;22.40;;
59458;SDS011;45269;43.568;22.244;2023-06-26T05:10:14;25.48;;;23.13;;
59458;SDS011;45269;43.568;22.244;2023-06-26T05:12:40;25.73;;;23.27;;
59458;SDS011;45269;43.568;22.244;2023-06-26T05:15:05;27.05;;;24.40;;
59458;SDS011;45269;43.568;22.244;2023-06-26T05:17:30;24.90;;;22.55;;
59458;SDS011;45269;43.568;22.244;2023-06-26T05:19:56;24.40;;;22.23;;
59458;SDS011;45269;43.568;22.244;2023-06-26T05:22:21;25.33;;;22.88;;
59458;SDS011;45269;43.568;22.244;2023-06-26T05:24:47;25.08;;;22.67;;
59458;SDS011;45269;43.568;22.244;2023-06-26T05:27:12;25.45;;;23.15;;
59458;SDS011;45269;43.568;22.244;2023-06-26T05:29:46;25.10;;;22.70;;
59458;SDS011;45269;43.568;22.244;2023-06-26T05:32:11;26.48;;;23.92;;
59458;SDS011;45269;43.568;22.244;2023-06-26T05:34:37;26.30;;;23.88;;
59458;SDS011;45269;43.568;22.244;2023-06-26T05:37:03;26.55;;;23.98;;
59458;SDS011;45269;43.568;22.244;2023-06-26T05:39:29;24.98;;;22.70;;
59458;SDS011;45269;43.568;22.244;2023-06-26T05:41:55;23.55;;;21.15;;
59458;SDS011;45269;43.568;22.244;2023-06-26T05:44:21;24.65;;;22.15;;
59458;SDS011;45269;43.568;22.244;2023-06-26T05:46:46;21.60;;;19.60;;
59458;SDS011;45269;43.568;22.244;2023-06-26T05:49:12;21.50;;;19.55;;
59458;SDS011;45269;43.568;22.244;2023-06-26T05:51:37;21.73;;;19.63;;
59458;SDS011;45269;43.568;22.244;2023-06-26T05:54:03;21.65;;;19.55;;
59458;SDS011;45269;43.568;22.244;2023-06-26T05:56:28;20.20;;;18.30;;
59458;SDS011;45269;43.568;22.244;2023-06-26T05:58:54;20.10;;;18.20;;
59458;SDS011;45269;43.568;22.244;2023-06-26T06:01:19;19.70;;;17.90;;
59458;SDS011;45269;43.568;22.244;2023-06-26T06:03:45;20.50;;;18.60;;
59458;SDS011;45269;43.568;22.244;2023-06-26T06:06:10;19.75;;;17.85;;
59458;SDS011;45269;43.568;22.244;2023-06-26T06:08:36;19.30;;;17.35;;
59458;SDS011;45269;43.568;22.244;2023-06-26T06:11:01;17.67;;;16.02;;
59458;SDS011;45269;43.568;22.244;2023-06-26T06:13:27;16.63;;;15.13;;
59458;SDS011;45269;43.568;22.244;2023-06-26T06:15:53;16.40;;;14.82;;
59458;SDS011;45269;43.568;22.244;2023-06-26T06:18:18;14.70;;;13.40;;
59458;SDS011;45269;43.568;22.244;2023-06-26T06:20:43;15.23;;;13.93;;
59458;SDS011;45269;43.568;22.244;2023-06-26T06:23:09;15.52;;;14.02;;
59458;SDS011;45269;43.568;22.244;2023-06-26T06:25:34;15.18;;;13.77;;
59458;SDS011;45269;43.568;22.244;2023-06-26T06:27:59;17.85;;;16.13;;
59458;SDS011;45269;43.568;22.244;2023-06-26T06:30:25;18.25;;;16.48;;
59458;SDS011;45269;43.568;22.244;2023-06-26T06:32:50;16.45;;;14.85;;
59458;SDS011;45269;43.568;22.244;2023-06-26T06:35:18;16.65;;;15.05;;
59458;SDS011;45269;43.568;22.244;2023-06-26T06:37:43;17.48;;;15.88;;
59458;SDS011;45269;43.568;22.244;2023-06-26T06:40:09;16.75;;;15.05;;
59458;SDS011;45269;43.568;22.244;2023-06-26T06:42:34;17.02;;;15.52;;
59458;SDS011;45269;43.568;22.244;2023-06-26T06:45:02;17.73;;;16.08;;
59458;SDS011;45269;43.568;22.244;2023-06-26T06:47:27;17.67;;;16.00;;
59458;SDS011;45269;43.568;22.244;2023-06-26T06:49:52;18.77;;;16.92;;
59458;SDS011;45269;43.568;22.244;2023-06-26T06:52:18;23.50;;;21.40;;
59458;SDS011;45269;43.568;22.244;2023-06-26T06:54:53;21.88;;;19.83;;
59458;SDS011;45269;43.568;22.244;2023-06-26T06:57:19;17.98;;;16.23;;
59458;SDS011;45269;43.568;22.244;2023-06-26T06:59:45;15.20;;;13.70;;
59458;SDS011;45269;43.568;22.244;2023-06-26T07:02:12;14.63;;;13.15;;
59458;SDS011;45269;43.568;22.244;2023-06-26T07:04:37;14.88;;;13.38;;
59458;SDS011;45269;43.568;22.244;2023-06-26T07:07:03;17.05;;;15.45;;
59458;SDS011;45269;43.568;22.244;2023-06-26T07:09:28;16.45;;;15.10;;
59458;SDS011;45269;43.568;22.244;2023-06-26T07:11:54;16.20;;;14.70;;
59458;SDS011;45269;43.568;22.244;2023-06-26T07:14:19;15.55;;;14.15;;
59458;SDS011;45269;43.568;22.244;2023-06-26T07:16:44;17.05;;;15.35;;
59458;SDS011;45269;43.568;22.244;2023-06-26T07:19:10;16.20;;;14.65;;
59458;SDS011;45269;43.568;22.244;2023-06-26T07:21:35;15.88;;;14.57;;
59458;SDS011;45269;43.568;22.244;2023-06-26T07:24:00;15.45;;;14.02;;
59458;SDS011;45269;43.568;22.244;2023-06-26T07:26:26;15.82;;;14.35;;
59458;SDS011;45269;43.568;22.244;2023-06-26T07:28:51;15.40;;;14.00;;
59458;SDS011;45269;43.568;22.244;2023-06-26T07:31:17;15.95;;;14.45;;
59458;SDS011;45269;43.568;22.244;2023-06-26T07:33:42;15.32;;;13.73;;
59458;SDS011;45269;43.568;22.244;2023-06-26T07:36:07;14.07;;;12.88;;
59458;SDS011;45269;43.568;22.244;2023-06-26T07:38:33;14.50;;;13.10;;
59458;SDS011;45269;43.568;22.244;2023-06-26T07:40:58;15.18;;;13.68;;
59458;SDS011;45269;43.568;22.244;2023-06-26T07:43:23;13.25;;;11.88;;
59458;SDS011;45269;43.568;22.244;2023-06-26T07:45:49;12.85;;;11.65;;
59458;SDS011;45269;43.568;22.244;2023-06-26T07:48:16;12.90;;;11.70;;
59458;SDS011;45269;43.568;22.244;2023-06-26T07:50:42;12.93;;;11.73;;
59458;SDS011;45269;43.568;22.244;2023-06-26T07:53:07;12.27;;;11.10;;
59458;SDS011;45269;43.568;22.244;2023-06-26T07:55:32;12.50;;;11.40;;
59458;SDS011;45269;43.568;22.244;2023-06-26T07:57:58;12.70;;;11.50;;
59458;SDS011;45269;43.568;22.244;2023-06-26T08:00:23;13.30;;;11.82;;
59458;SDS011;45269;43.568;22.244;2023-06-26T08:02:48;12.65;;;11.35;;
59458;SDS011;45269;43.568;22.244;2023-06-26T08:05:14;12.65;;;10.90;;
59458;SDS011;45269;43.568;22.244;2023-06-26T08:07:39;12.70;;;11.57;;
59458;SDS011;45269;43.568;22.244;2023-06-26T08:10:05;11.85;;;10.73;;
59458;SDS011;45269;43.568;22.244;2023-06-26T08:12:30;12.75;;;11.20;;
59458;SDS011;45269;43.568;22.244;2023-06-26T08:14:56;12.68;;;11.48;;
59458;SDS011;45269;43.568;22.244;2023-06-26T08:17:21;12.27;;;11.23;;
59458;SDS011;45269;43.568;22.244;2023-06-26T08:19:46;12.32;;;11.23;;
59458;SDS011;45269;43.568;22.244;2023-06-26T08:22:12;11.85;;;10.65;;
59458;SDS011;45269;43.568;22.244;2023-06-26T08:24:37;11.90;;;10.50;;
59458;SDS011;45269;43.568;22.244;2023-06-26T08:27:03;11.45;;;10.48;;
59458;SDS011;45269;43.568;22.244;2023-06-26T08:29:28;11.98;;;10.88;;
59458;SDS011;45269;43.568;22.244;2023-06-26T08:31:54;12.18;;;10.93;;
59458;SDS011;45269;43.568;22.244;2023-06-26T08:34:19;12.07;;;10.88;;
59458;SDS011;45269;43.568;22.244;2023-06-26T08:36:44;11.63;;;10.52;;
59458;SDS011;45269;43.568;22.244;2023-06-26T08:39:10;10.80;;;9.88;;
59458;SDS011;45269;43.568;22.244;2023-06-26T08:41:35;16.55;;;10.82;;
59458;SDS011;45269;43.568;22.244;2023-06-26T08:44:03;11.65;;;10.55;;
59458;SDS011;45269;43.568;22.244;2023-06-26T08:46:29;11.48;;;10.48;;
59458;SDS011;45269;43.568;22.244;2023-06-26T08:48:56;12.07;;;10.98;;
59458;SDS011;45269;43.568;22.244;2023-06-26T08:51:23;12.02;;;10.95;;
59458;SDS011;45269;43.568;22.244;2023-06-26T08:53:52;11.20;;;10.20;;
59458;SDS011;45269;43.568;22.244;2023-06-26T08:56:21;11.48;;;10.43;;
59458;SDS011;45269;43.568;22.244;2023-06-26T08:58:47;11.48;;;10.30;;
59458;SDS011;45269;43.568;22.244;2023-06-26T09:01:13;10.70;;;9.80;;
59458;SDS011;45269;43.568;22.244;2023-06-26T09:03:38;10.68;;;9.07;;
59458;SDS011;45269;43.568;22.244;2023-06-26T09:06:03;10.00;;;9.20;;
59458;SDS011;45269;43.568;22.244;2023-06-26T09:08:29;10.98;;;9.48;;
59458;SDS011;45269;43.568;22.244;2023-06-26T09:10:54;11.00;;;9.88;;
59458;SDS011;45269;43.568;22.244;2023-06-26T09:13:20;11.00;;;10.00;;
59458;SDS011;45269;43.568;22.244;2023-06-26T09:15:45;11.10;;;10.00;;
59458;SDS011;45269;43.568;22.244;2023-06-26T09:18:11;10.60;;;9.70;;
59458;SDS011;45269;43.568;22.244;2023-06-26T09:20:37;10.55;;;9.65;;
59458;SDS011;45269;43.568;22.244;2023-06-26T09:23:02;11.00;;;9.90;;
59458;SDS011;45269;43.568;22.244;2023-06-26T09:25:28;10.90;;;9.95;;
59458;SDS011;45269;43.568;22.244;2023-06-26T09:27:54;10.57;;;9.68;;
59458;SDS011;45269;43.568;22.244;2023-06-26T09:30:19;11.18;;;10.23;;
59458;SDS011;45269;43.568;22.244;2023-06-26T09:32:45;11.93;;;10.73;;
59458;SDS011;45269;43.568;22.244;2023-06-26T09:35:10;9.30;;;8.50;;
59458;SDS011;45269;43.568;22.244;2023-06-26T09:37:36;10.18;;;9.27;;
59458;SDS011;45269;43.568;22.244;2023-06-26T09:40:01;9.02;;;8.15;;
59458;SDS011;45269;43.568;22.244;2023-06-26T09:42:28;9.40;;;8.50;;
59458;SDS011;45269;43.568;22.244;2023-06-26T09:44:54;9.75;;;8.95;;
59458;SDS011;45269;43.568;22.244;2023-06-26T09:47:20;10.38;;;8.40;;
59458;SDS011;45269;43.568;22.244;2023-06-26T09:49:45;9.73;;;8.75;;
59458;SDS011;45269;43.568;22.244;2023-06-26T09:52:14;10.43;;;9.63;;
59458;SDS011;45269;43.568;22.244;2023-06-26T09:54:40;9.13;;;8.32;;
59458;SDS011;45269;43.568;22.244;2023-06-26T09:57:09;6.05;;;5.55;;
59458;SDS011;45269;43.568;22.244;2023-06-26T09:59:35;6.78;;;4.97;;
59458;SDS011;45269;43.568;22.244;2023-06-26T10:02:01;6.78;;;5.15;;
59458;SDS011;45269;43.568;22.244;2023-06-26T10:04:27;5.95;;;5.40;;
59458;SDS011;45269;43.568;22.244;2023-06-26T10:06:53;6.30;;;5.70;;
59458;SDS011;45269;43.568;22.244;2023-06-26T10:09:19;6.32;;;5.53;;
59458;SDS011;45269;43.568;22.244;2023-06-26T10:12:06;6.53;;;5.93;;
59458;SDS011;45269;43.568;22.244;2023-06-26T10:14:36;6.60;;;5.90;;
59458;SDS011;45269;43.568;22.244;2023-06-26T10:17:03;7.20;;;6.38;;
59458;SDS011;45269;43.568;22.244;2023-06-26T10:19:29;6.30;;;5.65;;
59458;SDS011;45269;43.568;22.244;2023-06-26T10:21:55;5.90;;;5.40;;
59458;SDS011;45269;43.568;22.244;2023-06-26T10:24:21;6.00;;;5.50;;
59458;SDS011;45269;43.568;22.244;2023-06-26T10:26:48;7.03;;;6.03;;
59458;SDS011;45269;43.568;22.244;2023-06-26T10:29:14;6.68;;;5.75;;
59458;SDS011;45269;43.568;22.244;2023-06-26T10:31:42;5.03;;;4.63;;
59458;SDS011;45269;43.568;22.244;2023-06-26T10:34:08;4.95;;;4.55;;
59458;SDS011;45269;43.568;22.244;2023-06-26T10:36:33;4.47;;;4.13;;
59458;SDS011;45269;43.568;22.244;2023-06-26T10:39:04;5.05;;;4.65;;
59458;SDS011;45269;43.568;22.244;2023-06-26T10:41:36;5.18;;;4.78;;
59458;SDS011;45269;43.568;22.244;2023-06-26T10:49:29;5.78;;;5.20;;
59458;SDS011;45269;43.568;22.244;2023-06-26T10:51:55;5.43;;;4.93;;
59458;SDS011;45269;43.568;22.244;2023-06-26T10:54:23;6.88;;;6.22;;
59458;SDS011;45269;43.568;22.244;2023-06-26T10:56:49;7.78;;;7.07;;
59458;SDS011;45269;43.568;22.244;2023-06-26T10:59:19;7.78;;;7.05;;
59458;SDS011;45269;43.568;22.244;2023-06-26T11:01:46;6.78;;;6.05;;
59458;SDS011;45269;43.568;22.244;2023-06-26T11:04:13;7.05;;;6.00;;
59458;SDS011;45269;43.568;22.244;2023-06-26T11:06:40;5.25;;;4.70;;
59458;SDS011;45269;43.568;22.244;2023-06-26T11:09:09;6.30;;;5.75;;
59458;SDS011;45269;43.568;22.244;2023-06-26T11:14:35;6.47;;;5.88;;
59458;SDS011;45269;43.568;22.244;2023-06-26T11:17:04;6.50;;;5.85;;
59458;SDS011;45269;43.568;22.244;2023-06-26T11:19:30;6.25;;;5.75;;
59458;SDS011;45269;43.568;22.244;2023-06-26T11:21:58;6.80;;;5.38;;
59458;SDS011;45269;43.568;22.244;2023-06-26T11:26:49;5.07;;;4.67;;
59458;SDS011;45269;43.568;22.244;2023-06-26T11:29:14;6.03;;;4.95;;
59458;SDS011;45269;43.568;22.244;2023-06-26T11:31:40;5.70;;;5.10;;
59458;SDS011;45269;43.568;22.244;2023-06-26T11:34:07;4.93;;;4.50;;
59458;SDS011;45269;43.568;22.244;2023-06-26T11:36:33;5.45;;;4.97;;
59458;SDS011;45269;43.568;22.244;2023-06-26T11:39:03;5.45;;;4.85;;
59458;SDS011;45269;43.568;22.244;2023-06-26T11:41:30;5.32;;;4.75;;
59458;SDS011;45269;43.568;22.244;2023-06-26T11:44:17;4.70;;;4.30;;
59458;SDS011;45269;43.568;22.244;2023-06-26T11:49:10;5.90;;;5.30;;
59458;SDS011;45269;43.568;22.244;2023-06-26T11:51:35;7.28;;;5.03;;
59458;SDS011;45269;43.568;22.244;2023-06-26T11:54:01;7.55;;;4.97;;
59458;SDS011;45269;43.568;22.244;2023-06-26T11:56:30;5.80;;;5.20;;
59458;SDS011;45269;43.568;22.244;2023-06-26T12:01:40;6.15;;;5.65;;
59458;SDS011;45269;43.568;22.244;2023-06-26T12:04:07;6.40;;;5.80;;
59458;SDS011;45269;43.568;22.244;2023-06-26T12:06:36;6.22;;;5.13;;
59458;SDS011;45269;43.568;22.244;2023-06-26T12:09:03;6.28;;;5.70;;
59458;SDS011;45269;43.568;22.244;2023-06-26T12:11:30;6.00;;;5.50;;
59458;SDS011;45269;43.568;22.244;2023-06-26T12:13:56;5.97;;;5.47;;
59458;SDS011;45269;43.568;22.244;2023-06-26T12:16:21;6.43;;;5.85;;
59458;SDS011;45269;43.568;22.244;2023-06-26T12:18:47;6.35;;;5.53;;
59458;SDS011;45269;43.568;22.244;2023-06-26T12:24:14;6.07;;;4.47;;
59458;SDS011;45269;43.568;22.244;2023-06-26T12:26:43;4.80;;;4.30;;
59458;SDS011;45269;43.568;22.244;2023-06-26T12:29:09;5.68;;;5.05;;
59458;SDS011;45269;43.568;22.244;2023-06-26T12:31:39;6.80;;;6.10;;
59458;SDS011;45269;43.568;22.244;2023-06-26T12:34:08;8.65;;;7.75;;
59458;SDS011;45269;43.568;22.244;2023-06-26T12:36:39;4.63;;;4.28;;
59458;SDS011;45269;43.568;22.244;2023-06-26T12:39:04;4.88;;;4.20;;
59458;SDS011;45269;43.568;22.244;2023-06-26T12:41:29;4.00;;;3.63;;
59458;SDS011;45269;43.568;22.244;2023-06-26T12:43:55;4.35;;;4.05;;
59458;SDS011;45269;43.568;22.244;2023-06-26T12:46:21;4.65;;;4.28;;
59458;SDS011;45269;43.568;22.244;2023-06-26T12:48:57;5.07;;;4.57;;
59458;SDS011;45269;43.568;22.244;2023-06-26T12:51:23;4.65;;;4.25;;
59458;SDS011;45269;43.568;22.244;2023-06-26T12:53:51;5.35;;;4.82;;
59458;SDS011;45269;43.568;22.244;2023-06-26T12:56:17;4.90;;;4.35;;
59458;SDS011;45269;43.568;22.244;2023-06-26T12:58:42;5.10;;;4.57;;
59458;SDS011;45269;43.568;22.244;2023-06-26T13:01:08;6.13;;;5.55;;
59458;SDS011;45269;43.568;22.244;2023-06-26T13:03:39;8.50;;;7.80;;
59458;SDS011;45269;43.568;22.244;2023-06-26T13:06:05;8.55;;;7.10;;
59458;SDS011;45269;43.568;22.244;2023-06-26T13:08:30;7.25;;;6.38;;
59458;SDS011;45269;43.568;22.244;2023-06-26T13:10:55;5.70;;;5.20;;
59458;SDS011;45269;43.568;22.244;2023-06-26T13:13:21;5.30;;;4.80;;
59458;SDS011;45269;43.568;22.244;2023-06-26T13:15:47;4.97;;;4.43;;
59458;SDS011;45269;43.568;22.244;2023-06-26T13:18:12;5.03;;;4.63;;
59458;SDS011;45269;43.568;22.244;2023-06-26T13:20:37;6.28;;;5.35;;
59458;SDS011;45269;43.568;22.244;2023-06-26T13:23:03;5.88;;;4.82;;
59458;SDS011;45269;43.568;22.244;2023-06-26T13:25:28;4.63;;;4.22;;
59458;SDS011;45269;43.568;22.244;2023-06-26T13:27:53;5.20;;;4.70;;
59458;SDS011;45269;43.568;22.244;2023-06-26T13:30:19;4.97;;;4.57;;
59458;SDS011;45269;43.568;22.244;2023-06-26T13:32:44;5.15;;;4.75;;
59458;SDS011;45269;43.568;22.244;2023-06-26T13:35:09;5.68;;;5.15;;
59458;SDS011;45269;43.568;22.244;2023-06-26T13:37:35;5.75;;;4.95;;
59458;SDS011;45269;43.568;22.244;2023-06-26T13:40:01;5.55;;;5.05;;
59458;SDS011;45269;43.568;22.244;2023-06-26T13:42:27;8.23;;;5.43;;
59458;SDS011;45269;43.568;22.244;2023-06-26T13:44:53;11.63;;;6.32;;
59458;SDS011;45269;43.568;22.244;2023-06-26T13:47:18;9.35;;;6.05;;
59458;SDS011;45269;43.568;22.244;2023-06-26T13:49:44;6.75;;;5.28;;
59458;SDS011;45269;43.568;22.244;2023-06-26T13:52:09;4.80;;;4.45;;
59458;SDS011;45269;43.568;22.244;2023-06-26T13:54:35;4.85;;;4.40;;
59458;SDS011;45269;43.568;22.244;2023-06-26T13:57:01;5.50;;;5.00;;
59458;SDS011;45269;43.568;22.244;2023-06-26T13:59:27;5.80;;;5.30;;
59458;SDS011;45269;43.568;22.244;2023-06-26T14:01:53;5.18;;;4.68;;
59458;SDS011;45269;43.568;22.244;2023-06-26T14:04:18;5.57;;;5.07;;
59458;SDS011;45269;43.568;22.244;2023-06-26T14:06:43;8.52;;;5.45;;
59458;SDS011;45269;43.568;22.244;2023-06-26T14:09:10;5.43;;;4.82;;
59458;SDS011;45269;43.568;22.244;2023-06-26T14:11:35;5.60;;;5.07;;
59458;SDS011;45269;43.568;22.244;2023-06-26T14:14:01;4.97;;;4.50;;
59458;SDS011;45269;43.568;22.244;2023-06-26T14:16:26;5.55;;;5.13;;
59458;SDS011;45269;43.568;22.244;2023-06-26T14:18:53;7.47;;;5.65;;
59458;SDS011;45269;43.568;22.244;2023-06-26T14:21:19;6.15;;;5.55;;
59458;SDS011;45269;43.568;22.244;2023-06-26T14:23:44;9.10;;;5.60;;
59458;SDS011;45269;43.568;22.244;2023-06-26T14:26:10;6.10;;;5.55;;
59458;SDS011;45269;43.568;22.244;2023-06-26T14:28:36;5.70;;;5.30;;
59458;SDS011;45269;43.568;22.244;2023-06-26T14:31:01;5.68;;;5.28;;
59458;SDS011;45269;43.568;22.244;2023-06-26T14:33:26;6.45;;;5.90;;